createdAt,value
2023-05-01T00:00:20.997Z,47.28
2023-05-01T00:02:52.568Z,47.15
2023-05-01T00:05:19.045Z,47.25
2023-05-01T00:07:45.484Z,47.28
2023-05-01T00:10:11.829Z,47.19
2023-05-01T00:12:38.280Z,47.22
2023-05-01T00:15:04.872Z,47.25
2023-05-01T00:17:31.732Z,47.25
2023-05-01T00:19:58.396Z,47.42
2023-05-01T00:22:24.973Z,47.52
2023-05-01T00:24:51.643Z,47.57
2023-05-01T00:27:18.022Z,47.56
2023-05-01T00:29:44.380Z,47.46
2023-05-01T00:32:10.832Z,47.72
2023-05-01T00:34:37.250Z,47.77
2023-05-01T00:37:03.621Z,47.53
2023-05-01T00:39:30.004Z,47.47
2023-05-01T00:41:57.574Z,47.65
2023-05-01T00:44:23.925Z,47.58
2023-05-01T00:46:50.321Z,47.68
2023-05-01T00:49:17.659Z,47.62
2023-05-01T00:51:44.269Z,47.83
2023-05-01T00:54:10.919Z,47.76
2023-05-01T00:56:37.332Z,47.89
2023-05-01T00:59:04.337Z,47.76
2023-05-01T01:01:30.770Z,47.88
2023-05-01T01:03:57.177Z,47.86
2023-05-01T01:06:27.832Z,47.71
2023-05-01T01:09:20.809Z,47.62
2023-05-01T01:11:57.458Z,47.79
2023-05-01T01:14:47.546Z,47.73
2023-05-01T01:17:17.435Z,47.66
2023-05-01T01:19:57.057Z,47.70
2023-05-01T01:22:24.187Z,47.67
2023-05-01T01:24:57.410Z,47.71
2023-05-01T01:27:30.972Z,47.70
2023-05-01T01:30:07.958Z,47.60
2023-05-01T01:32:54.296Z,47.63
2023-05-01T01:35:21.108Z,47.56
2023-05-01T01:37:48.850Z,47.58
2023-05-01T01:40:16.357Z,47.57
2023-05-01T01:42:46.456Z,47.62
2023-05-01T01:45:23.730Z,47.48
2023-05-01T01:47:50.174Z,47.53
2023-05-01T01:50:16.727Z,47.59
2023-05-01T01:52:43.088Z,47.51
2023-05-01T01:55:10.142Z,47.43
2023-05-01T01:57:39.956Z,47.41
2023-05-01T02:00:08.917Z,47.47
2023-05-01T02:02:39.733Z,47.38
2023-05-01T02:05:09.259Z,47.36
2023-05-01T02:07:35.894Z,47.45
2023-05-01T02:10:03.425Z,47.38
2023-05-01T02:12:29.780Z,47.30
2023-05-01T02:14:56.213Z,47.24
2023-05-01T02:17:22.745Z,47.29
2023-05-01T02:19:49.090Z,47.09
2023-05-01T02:22:17.076Z,47.26
2023-05-01T02:24:43.447Z,47.31
2023-05-01T02:27:17.257Z,47.33
2023-05-01T02:29:44.259Z,47.52
2023-05-01T02:32:10.608Z,47.53
2023-05-01T02:34:37.441Z,47.40
2023-05-01T02:37:07.186Z,47.58
2023-05-01T02:39:34.420Z,47.55
2023-05-01T02:42:03.109Z,47.55
2023-05-01T02:44:30.745Z,47.48
2023-05-01T02:46:57.761Z,47.38
2023-05-01T02:49:24.242Z,47.54
2023-05-01T02:51:50.572Z,47.58
2023-05-01T02:54:17.385Z,47.52
2023-05-01T02:56:43.825Z,47.58
2023-05-01T02:59:10.181Z,47.64
2023-05-01T03:01:36.878Z,47.55
2023-05-01T03:04:03.913Z,47.63
2023-05-01T03:06:31.165Z,47.52
2023-05-01T03:08:57.571Z,47.47
2023-05-01T03:11:24.350Z,47.75
2023-05-01T03:13:51.156Z,47.61
2023-05-01T03:16:17.531Z,47.68
2023-05-01T03:18:43.874Z,47.56
2023-05-01T03:21:10.253Z,47.52
2023-05-01T03:23:38.329Z,47.61
2023-05-01T03:26:04.774Z,47.60
2023-05-01T03:28:31.201Z,47.68
2023-05-01T03:30:57.595Z,47.62
2023-05-01T03:33:24.142Z,47.46
2023-05-01T03:35:58.852Z,47.79
2023-05-01T03:38:26.672Z,47.58
2023-05-01T03:41:13.033Z,47.81
2023-05-01T03:43:59.344Z,47.76
2023-05-01T03:46:32.735Z,47.71
2023-05-01T03:48:59.722Z,47.68
2023-05-01T03:51:27.680Z,47.56
2023-05-01T03:53:58.606Z,47.72
2023-05-01T03:56:26.480Z,47.65
2023-05-01T03:58:53.513Z,47.72
2023-05-01T04:01:20.001Z,47.93
2023-05-01T04:03:48.324Z,47.82
2023-05-01T04:06:14.852Z,47.81
2023-05-01T04:08:41.522Z,47.92
2023-05-01T04:11:07.974Z,47.89
2023-05-01T04:13:34.325Z,47.78
2023-05-01T04:16:02.041Z,47.82
2023-05-01T04:18:28.492Z,47.83
2023-05-01T04:20:58.684Z,47.61
2023-05-01T04:23:25.066Z,47.78
2023-05-01T04:25:53.982Z,47.80
2023-05-01T04:28:20.428Z,47.59
2023-05-01T04:30:46.909Z,47.67
2023-05-01T04:33:13.380Z,47.83
2023-05-01T04:35:40.155Z,47.81
2023-05-01T04:38:07.099Z,47.89
2023-05-01T04:40:33.935Z,47.65
2023-05-01T04:43:00.581Z,47.67
2023-05-01T04:45:27.090Z,47.79
2023-05-01T04:47:54.244Z,47.75
2023-05-01T04:50:20.603Z,47.77
2023-05-01T04:52:47.210Z,47.97
2023-05-01T04:55:13.654Z,47.73
2023-05-01T04:57:57.688Z,47.79
2023-05-01T05:00:24.445Z,47.84
2023-05-01T05:02:54.979Z,47.86
2023-05-01T05:05:21.468Z,47.92
2023-05-01T05:07:48.857Z,47.89
2023-05-01T05:10:23.905Z,47.84
2023-05-01T05:13:03.538Z,47.66
2023-05-01T05:15:29.944Z,47.95
2023-05-01T05:17:56.748Z,47.96
2023-05-01T05:20:24.209Z,48.04
2023-05-01T05:22:50.668Z,47.76
2023-05-01T05:25:21.442Z,47.80
2023-05-01T05:27:47.798Z,47.88
2023-05-01T05:30:14.180Z,47.85
2023-05-01T05:32:40.910Z,47.88
2023-05-01T05:35:07.708Z,47.76
2023-05-01T05:37:34.060Z,47.82
2023-05-01T05:40:00.878Z,47.97
2023-05-01T05:42:29.924Z,47.73
2023-05-01T05:44:59.364Z,47.78
2023-05-01T05:47:25.742Z,47.75
2023-05-01T05:49:52.170Z,47.83
2023-05-01T05:52:18.516Z,47.74
2023-05-01T05:54:44.861Z,47.87
2023-05-01T05:57:11.809Z,47.80
2023-05-01T05:59:44.135Z,47.73
2023-05-01T06:02:12.602Z,47.75
2023-05-01T06:04:38.989Z,47.76
2023-05-01T06:07:06.314Z,47.74
2023-05-01T06:09:33.398Z,47.70
2023-05-01T06:12:00.368Z,47.75
2023-05-01T06:14:27.098Z,47.85
2023-05-01T06:16:53.472Z,47.85
2023-05-01T06:19:19.839Z,48.01
2023-05-01T06:21:50.578Z,47.93
2023-05-01T06:24:16.957Z,47.83
2023-05-01T06:26:47.146Z,47.85
2023-05-01T06:29:13.529Z,47.81
2023-05-01T06:31:39.902Z,47.80
2023-05-01T06:34:06.350Z,47.77
2023-05-01T06:36:49.458Z,47.81
2023-05-01T06:39:16.087Z,47.82
2023-05-01T06:41:42.685Z,47.89
2023-05-01T06:44:09.212Z,48.01
2023-05-01T06:46:37.627Z,47.80
2023-05-01T06:49:04.080Z,47.86
2023-05-01T06:51:31.438Z,47.94
2023-05-01T06:53:57.801Z,47.86
2023-05-01T06:56:24.156Z,47.84
2023-05-01T06:58:50.534Z,47.92
2023-05-01T07:01:17.031Z,47.86
2023-05-01T07:03:43.692Z,47.91
2023-05-01T07:06:10.293Z,47.76
2023-05-01T07:08:36.641Z,47.83
2023-05-01T07:11:02.971Z,48.06
2023-05-01T07:13:29.310Z,47.89
2023-05-01T07:15:55.653Z,48.10
2023-05-01T07:18:22.450Z,47.37
2023-05-01T07:20:50.236Z,44.90
2023-05-01T07:23:16.624Z,45.74
2023-05-01T07:25:45.017Z,47.58
2023-05-01T07:28:11.378Z,47.17
2023-05-01T07:30:37.895Z,47.09
2023-05-01T07:33:05.863Z,47.29
2023-05-01T07:35:32.869Z,45.73
2023-05-01T07:37:59.198Z,47.46
2023-05-01T07:40:25.633Z,47.36
2023-05-01T07:42:54.444Z,46.27
2023-05-01T07:45:21.069Z,46.59
2023-05-01T07:47:47.419Z,46.70
2023-05-01T07:50:13.773Z,46.82
2023-05-01T07:52:40.093Z,47.04
2023-05-01T07:55:07.278Z,47.42
2023-05-01T07:57:33.624Z,47.35
2023-05-01T08:00:00.134Z,47.94
2023-05-01T08:02:26.707Z,47.09
2023-05-01T08:04:53.236Z,45.54
2023-05-01T08:07:19.651Z,43.09
2023-05-01T08:09:46.264Z,41.80
2023-05-01T08:12:12.973Z,40.75
2023-05-01T08:14:39.304Z,42.98
2023-05-01T08:17:05.627Z,42.80
2023-05-01T08:19:32.197Z,43.89
2023-05-01T08:21:58.542Z,44.42
2023-05-01T08:24:24.958Z,44.33
2023-05-01T08:26:51.370Z,44.29
2023-05-01T08:29:17.709Z,43.94
2023-05-01T08:31:44.837Z,43.96
2023-05-01T08:34:11.214Z,44.19
2023-05-01T08:36:38.222Z,44.06
2023-05-01T08:39:05.179Z,44.23
2023-05-01T08:41:31.525Z,44.34
2023-05-01T08:44:01.575Z,44.44
2023-05-01T08:46:46.892Z,44.43
2023-05-01T08:49:14.658Z,44.73
2023-05-01T08:51:41.470Z,44.87
2023-05-01T08:54:08.318Z,44.99
2023-05-01T08:56:35.779Z,44.99
2023-05-01T08:59:03.294Z,44.93
2023-05-01T09:01:29.767Z,44.81
2023-05-01T09:03:56.270Z,45.05
2023-05-01T09:06:22.687Z,44.85
2023-05-01T09:08:49.101Z,45.06
2023-05-01T09:11:15.463Z,44.98
2023-05-01T09:13:41.793Z,45.19
2023-05-01T09:16:08.156Z,45.42
2023-05-01T09:18:34.621Z,45.43
2023-05-01T09:21:01.885Z,45.58
2023-05-01T09:23:28.242Z,45.81
2023-05-01T09:25:54.614Z,45.77
2023-05-01T09:28:39.702Z,45.87
2023-05-01T09:31:16.799Z,45.95
2023-05-01T09:33:51.085Z,46.15
2023-05-01T09:36:17.956Z,46.46
2023-05-01T09:38:44.273Z,46.48
2023-05-01T09:41:10.587Z,46.59
2023-05-01T09:43:36.938Z,46.78
2023-05-01T09:46:05.338Z,46.75
2023-05-01T09:48:34.817Z,44.14
2023-05-01T09:51:01.989Z,45.05
2023-05-01T09:53:37.975Z,44.25
2023-05-01T09:56:04.447Z,45.13
2023-05-01T09:58:30.858Z,44.82
2023-05-01T10:00:57.272Z,44.28
2023-05-01T10:03:23.731Z,44.05
2023-05-01T10:05:50.117Z,43.79
2023-05-01T10:08:16.506Z,43.97
2023-05-01T10:10:47.138Z,44.15
2023-05-01T10:13:14.271Z,44.07
2023-05-01T10:15:40.615Z,43.93
2023-05-01T10:18:07.420Z,44.09
2023-05-01T10:20:33.824Z,44.02
2023-05-01T10:23:00.487Z,43.65
2023-05-01T10:25:26.828Z,42.76
2023-05-01T10:27:53.164Z,43.18
2023-05-01T10:30:19.519Z,43.32
2023-05-01T10:32:45.917Z,43.27
2023-05-01T10:35:14.420Z,43.43
2023-05-01T10:37:45.960Z,42.61
2023-05-01T10:40:31.032Z,43.08
2023-05-01T10:43:13.101Z,43.24
2023-05-01T10:45:39.462Z,43.03
2023-05-01T10:48:05.925Z,43.05
2023-05-01T10:50:32.833Z,40.12
2023-05-01T10:53:17.510Z,40.27
2023-05-01T10:55:46.965Z,38.18
2023-05-01T10:58:14.079Z,40.85
2023-05-01T11:00:40.576Z,39.97
2023-05-01T11:03:22.091Z,39.92
2023-05-01T11:06:01.050Z,40.42
2023-05-01T11:08:34.665Z,40.40
2023-05-01T11:11:19.425Z,40.59
2023-05-01T11:13:55.662Z,41.28
2023-05-01T11:16:37.566Z,41.78
2023-05-01T11:19:24.250Z,42.10
2023-05-01T11:21:54.115Z,42.43
2023-05-01T11:24:20.465Z,42.71
2023-05-01T11:26:47.313Z,42.78
2023-05-01T11:29:13.690Z,42.70
2023-05-01T11:31:40.093Z,42.93
2023-05-01T11:34:09.618Z,42.56
2023-05-01T11:36:49.206Z,43.21
2023-05-01T11:39:15.858Z,43.27
2023-05-01T11:41:42.248Z,42.96
2023-05-01T11:44:08.728Z,43.23
2023-05-01T11:46:35.190Z,42.91
2023-05-01T11:49:01.588Z,42.85
2023-05-01T11:51:28.176Z,42.84
2023-05-01T11:53:59.968Z,43.05
2023-05-01T11:56:27.569Z,43.30
2023-05-01T11:58:54.750Z,43.65
2023-05-01T12:01:21.098Z,43.55
2023-05-01T12:03:47.486Z,43.43
2023-05-01T12:06:14.007Z,43.42
2023-05-01T12:08:43.902Z,43.40
2023-05-01T12:11:10.264Z,43.51
2023-05-01T12:13:36.625Z,43.61
2023-05-01T12:16:04.223Z,47.30
2023-05-01T12:18:30.574Z,46.93
2023-05-01T12:20:56.945Z,44.99
2023-05-01T12:23:33.971Z,42.92
2023-05-01T12:26:00.392Z,40.80
2023-05-01T12:28:27.611Z,39.49
2023-05-01T12:30:57.667Z,39.33
2023-05-01T12:33:24.153Z,35.50
2023-05-01T12:35:50.759Z,39.15
2023-05-01T12:38:17.823Z,39.65
2023-05-01T12:40:50.860Z,38.14
2023-05-01T12:43:17.197Z,38.48
2023-05-01T12:45:43.603Z,39.31
2023-05-01T12:48:11.507Z,39.00
2023-05-01T12:50:37.933Z,38.48
2023-05-01T12:53:05.095Z,38.84
2023-05-01T12:55:34.111Z,37.70
2023-05-01T12:58:00.450Z,39.63
2023-05-01T13:00:26.796Z,38.25
2023-05-01T13:02:53.186Z,37.29
2023-05-01T13:05:19.606Z,36.56
2023-05-01T13:07:48.857Z,35.91
2023-05-01T13:10:15.292Z,36.96
2023-05-01T13:12:44.687Z,36.74
2023-05-01T13:15:21.089Z,37.82
2023-05-01T13:17:47.546Z,38.01
2023-05-01T13:20:14.659Z,38.14
2023-05-01T13:22:41.195Z,38.26
2023-05-01T13:25:17.458Z,38.60
2023-05-01T13:27:50.560Z,38.58
2023-05-01T13:30:18.760Z,38.99
2023-05-01T13:32:45.360Z,39.05
2023-05-01T13:35:11.740Z,38.87
2023-05-01T13:37:39.487Z,38.99
2023-05-01T13:40:06.475Z,38.76
2023-05-01T13:42:32.857Z,38.88
2023-05-01T13:44:59.962Z,39.07
2023-05-01T13:47:27.022Z,39.15
2023-05-01T13:49:53.531Z,39.29
2023-05-01T13:52:19.902Z,39.36
2023-05-01T13:54:46.541Z,39.43
2023-05-01T13:57:12.881Z,40.00
2023-05-01T13:59:39.955Z,40.32
2023-05-01T14:02:25.941Z,40.46
2023-05-01T14:04:52.344Z,40.68
2023-05-01T14:07:19.146Z,40.89
2023-05-01T14:09:46.602Z,40.95
2023-05-01T14:12:13.395Z,40.80
2023-05-01T14:14:41.494Z,41.13
2023-05-01T14:17:07.923Z,41.14
2023-05-01T14:19:34.401Z,40.97
2023-05-01T14:22:00.761Z,41.25
2023-05-01T14:24:27.339Z,41.46
2023-05-01T14:26:53.684Z,41.46
2023-05-01T14:29:22.118Z,41.42
2023-05-01T14:31:48.948Z,41.59
2023-05-01T14:34:15.483Z,41.79
2023-05-01T14:36:43.435Z,42.14
2023-05-01T14:39:10.092Z,42.06
2023-05-01T14:41:39.368Z,42.35
2023-05-01T14:44:05.936Z,42.30
2023-05-01T14:46:33.311Z,42.35
2023-05-01T14:49:00.025Z,42.26
2023-05-01T14:51:27.159Z,42.46
2023-05-01T14:53:53.522Z,42.49
2023-05-01T14:56:19.871Z,42.23
2023-05-01T14:58:47.111Z,42.47
2023-05-01T15:01:13.745Z,42.59
2023-05-01T15:03:43.800Z,42.48
2023-05-01T15:06:10.301Z,42.42
2023-05-01T15:08:37.916Z,42.52
2023-05-01T15:11:04.278Z,42.49
2023-05-01T15:13:31.871Z,42.45
2023-05-01T15:15:58.404Z,42.29
2023-05-01T15:18:24.831Z,42.40
2023-05-01T15:20:51.223Z,42.17
2023-05-01T15:23:17.775Z,42.16
2023-05-01T15:25:44.393Z,42.36
2023-05-01T15:28:11.079Z,42.21
2023-05-01T15:30:37.443Z,42.29
2023-05-01T15:33:04.092Z,42.34
2023-05-01T15:35:30.562Z,42.41
2023-05-01T15:37:57.627Z,42.00
2023-05-01T15:40:23.980Z,41.53
2023-05-01T15:42:50.462Z,41.60
2023-05-01T15:45:16.999Z,42.02
2023-05-01T15:47:43.431Z,42.06
2023-05-01T15:50:10.762Z,41.80
2023-05-01T15:52:37.155Z,41.86
2023-05-01T15:55:03.486Z,41.78
2023-05-01T15:57:30.873Z,41.88
2023-05-01T15:59:57.370Z,41.82
2023-05-01T16:02:24.044Z,41.81
2023-05-01T16:04:52.663Z,41.86
2023-05-01T16:07:21.164Z,41.92
2023-05-01T16:09:47.530Z,41.84
2023-05-01T16:12:14.006Z,41.64
2023-05-01T16:14:43.123Z,41.42
2023-05-01T16:17:09.528Z,41.16
2023-05-01T16:19:38.833Z,41.14
2023-05-01T16:22:05.982Z,41.12
2023-05-01T16:24:32.768Z,41.47
2023-05-01T16:26:59.217Z,41.91
2023-05-01T16:29:25.966Z,41.67
2023-05-01T16:31:52.367Z,41.67
2023-05-01T16:34:22.371Z,41.97
2023-05-01T16:36:48.781Z,41.05
2023-05-01T16:39:21.453Z,37.91
2023-05-01T16:41:48.315Z,37.04
2023-05-01T16:44:16.085Z,36.20
2023-05-01T16:47:03.520Z,35.96
2023-05-01T16:49:29.956Z,35.04
2023-05-01T16:51:57.294Z,34.96
2023-05-01T16:54:24.112Z,35.21
2023-05-01T16:56:50.604Z,35.19
2023-05-01T16:59:16.961Z,35.39
2023-05-01T17:01:43.385Z,35.08
2023-05-01T17:04:09.888Z,35.16
2023-05-01T17:06:36.340Z,34.80
2023-05-01T17:09:02.831Z,34.94
2023-05-01T17:11:31.750Z,34.65
2023-05-01T17:13:58.365Z,34.43
2023-05-01T17:16:24.853Z,34.69
2023-05-01T17:18:51.524Z,34.70
2023-05-01T17:21:18.501Z,34.96
2023-05-01T17:23:44.866Z,35.00
2023-05-01T17:26:11.226Z,35.06
2023-05-01T17:28:38.655Z,35.49
2023-05-01T17:31:05.007Z,35.11
2023-05-01T17:33:31.422Z,35.24
2023-05-01T17:36:00.395Z,36.12
2023-05-01T17:38:26.974Z,36.28
2023-05-01T17:40:53.316Z,36.10
2023-05-01T17:43:20.646Z,36.40
2023-05-01T17:45:47.864Z,36.52
2023-05-01T17:48:14.370Z,36.99
2023-05-01T17:50:41.411Z,37.37
2023-05-01T17:53:09.433Z,37.64
2023-05-01T17:55:37.047Z,37.94
2023-05-01T17:58:03.473Z,38.42
2023-05-01T18:00:32.543Z,38.63
2023-05-01T18:02:59.488Z,39.56
2023-05-01T18:05:26.164Z,39.54
2023-05-01T18:07:52.663Z,39.69
2023-05-01T18:10:19.203Z,39.48
2023-05-01T18:12:46.999Z,39.70
2023-05-01T18:15:14.708Z,39.98
2023-05-01T18:17:43.878Z,40.21
2023-05-01T18:20:10.360Z,40.54
2023-05-01T18:22:36.724Z,40.95
2023-05-01T18:25:03.158Z,40.88
2023-05-01T18:27:29.558Z,41.09
2023-05-01T18:29:56.231Z,40.95
2023-05-01T18:32:28.073Z,41.24
2023-05-01T18:34:59.411Z,41.16
2023-05-01T18:37:26.209Z,41.54
2023-05-01T18:39:52.523Z,41.47
2023-05-01T18:42:18.857Z,41.76
2023-05-01T18:44:46.100Z,41.95
2023-05-01T18:47:12.752Z,41.84
2023-05-01T18:49:39.193Z,42.13
2023-05-01T18:52:05.765Z,42.30
2023-05-01T18:54:32.205Z,42.44
2023-05-01T18:56:58.534Z,42.36
2023-05-01T18:59:26.933Z,42.34
2023-05-01T19:01:53.929Z,42.36
2023-05-01T19:04:20.349Z,42.65
2023-05-01T19:06:46.772Z,42.47
2023-05-01T19:09:13.341Z,42.69
2023-05-01T19:11:39.669Z,42.67
2023-05-01T19:14:06.071Z,43.02
2023-05-01T19:16:32.474Z,42.71
2023-05-01T19:18:58.885Z,43.01
2023-05-01T19:21:25.250Z,42.93
2023-05-01T19:23:51.597Z,43.02
2023-05-01T19:26:17.928Z,43.09
2023-05-01T19:28:44.266Z,43.14
2023-05-01T19:31:12.419Z,43.17
2023-05-01T19:33:40.209Z,42.99
2023-05-01T19:36:06.537Z,43.19
2023-05-01T19:38:33.855Z,43.24
2023-05-01T19:41:00.508Z,43.06
2023-05-01T19:43:26.860Z,43.22
2023-05-01T19:45:53.617Z,43.23
2023-05-01T19:48:19.988Z,43.36
2023-05-01T19:50:51.020Z,43.28
2023-05-01T19:53:17.691Z,43.19
2023-05-01T19:55:45.693Z,43.31
2023-05-01T19:58:14.027Z,43.38
2023-05-01T20:00:40.986Z,43.47
2023-05-01T20:03:07.475Z,43.43
2023-05-01T20:05:33.845Z,43.59
2023-05-01T20:08:01.894Z,43.40
2023-05-01T20:10:28.224Z,43.64
2023-05-01T20:12:54.586Z,43.73
2023-05-01T20:15:20.966Z,43.78
2023-05-01T20:17:50.321Z,43.76
2023-05-01T20:20:18.334Z,43.74
2023-05-01T20:22:47.498Z,43.83
2023-05-01T20:25:14.126Z,43.87
2023-05-01T20:27:41.107Z,43.70
2023-05-01T20:30:12.447Z,44.00
2023-05-01T20:32:44.139Z,43.91
2023-05-01T20:35:11.247Z,43.81
2023-05-01T20:37:37.632Z,43.90
2023-05-01T20:40:04.908Z,43.89
2023-05-01T20:42:31.667Z,43.96
2023-05-01T20:44:57.973Z,43.89
2023-05-01T20:47:24.342Z,43.77
2023-05-01T20:49:50.687Z,43.75
2023-05-01T20:52:17.108Z,44.14
2023-05-01T20:54:43.447Z,44.13
2023-05-01T20:57:09.798Z,44.00
2023-05-01T20:59:36.151Z,44.04
2023-05-01T21:02:05.564Z,44.02
2023-05-01T21:04:32.025Z,44.06
2023-05-01T21:06:58.444Z,44.08
2023-05-01T21:09:24.840Z,44.13
2023-05-01T21:11:51.191Z,44.27
2023-05-01T21:14:17.557Z,44.30
2023-05-01T21:16:43.968Z,44.30
2023-05-01T21:19:10.829Z,44.30
2023-05-01T21:21:37.396Z,44.30
2023-05-01T21:24:03.764Z,44.26
2023-05-01T21:26:30.293Z,44.43
2023-05-01T21:28:57.581Z,44.38
2023-05-01T21:31:25.921Z,44.65
2023-05-01T21:33:53.293Z,44.49
2023-05-01T21:36:19.632Z,44.77
2023-05-01T21:38:46.086Z,44.69
2023-05-01T21:41:13.794Z,44.54
2023-05-01T21:43:40.152Z,44.79
2023-05-01T21:46:06.546Z,44.51
2023-05-01T21:48:32.885Z,44.72
2023-05-01T21:51:00.581Z,44.65
2023-05-01T21:53:27.614Z,44.79
2023-05-01T21:55:53.947Z,44.94
2023-05-01T21:58:20.282Z,44.90
2023-05-01T22:00:46.842Z,44.66
2023-05-01T22:03:14.704Z,44.78
2023-05-01T22:05:42.069Z,44.94
2023-05-01T22:08:08.410Z,44.90
2023-05-01T22:10:34.837Z,44.75
2023-05-01T22:13:01.172Z,44.99
2023-05-01T22:15:27.538Z,44.85
2023-05-01T22:17:53.933Z,44.81
2023-05-01T22:20:20.321Z,44.90
2023-05-01T22:22:46.888Z,44.88
2023-05-01T22:25:13.468Z,44.97
2023-05-01T22:27:40.565Z,45.05
2023-05-01T22:30:07.300Z,44.87
2023-05-01T22:32:33.875Z,45.10
2023-05-01T22:35:00.283Z,45.04
2023-05-01T22:37:26.701Z,45.04
2023-05-01T22:39:53.194Z,44.81
2023-05-01T22:42:19.881Z,44.86
2023-05-01T22:44:46.236Z,44.91
2023-05-01T22:47:12.557Z,44.93
2023-05-01T22:49:38.900Z,44.94
2023-05-01T22:52:05.257Z,44.88
2023-05-01T22:54:31.588Z,45.15
2023-05-01T22:56:57.993Z,44.88
2023-05-01T22:59:24.383Z,45.20
2023-05-01T23:01:50.817Z,45.09
2023-05-01T23:04:17.444Z,45.08
2023-05-01T23:06:44.533Z,44.94
2023-05-01T23:09:11.684Z,45.14
2023-05-01T23:11:38.579Z,45.04
2023-05-01T23:14:04.918Z,44.94
2023-05-01T23:16:32.188Z,44.91
2023-05-01T23:18:58.657Z,44.89
2023-05-01T23:21:25.418Z,44.98
2023-05-01T23:23:51.754Z,45.09
2023-05-01T23:26:25.455Z,45.22
2023-05-01T23:28:52.326Z,45.12
2023-05-01T23:31:21.096Z,45.10
2023-05-01T23:33:47.519Z,45.14
2023-05-01T23:36:13.972Z,44.96
2023-05-01T23:38:40.435Z,45.05
2023-05-01T23:41:07.734Z,45.00
2023-05-01T23:43:34.382Z,44.99
2023-05-01T23:46:01.156Z,45.06
2023-05-01T23:48:27.500Z,45.10
2023-05-01T23:50:53.872Z,45.13
2023-05-01T23:53:20.238Z,45.10
2023-05-01T23:55:46.940Z,45.11
2023-05-01T23:58:13.492Z,45.19
